sensor_id;sensor_type;location;lat;lon;timestamp;P1;durP1;ratioP1;P2;durP2;ratioP2
42084;SDS011;27746;52.228;20.890;2023-07-08T00:02:10;6.65;;;3.92;;
42084;SDS011;27746;52.228;20.890;2023-07-08T00:04:38;7.75;;;3.92;;
42084;SDS011;27746;52.228;20.890;2023-07-08T00:07:08;11.13;;;4.00;;
42084;SDS011;27746;52.228;20.890;2023-07-08T00:09:37;8.18;;;4.28;;
42084;SDS011;27746;52.228;20.890;2023-07-08T00:12:07;8.77;;;4.43;;
42084;SDS011;27746;52.228;20.890;2023-07-08T00:14:36;12.57;;;4.70;;
42084;SDS011;27746;52.228;20.890;2023-07-08T00:17:04;10.30;;;5.18;;
42084;SDS011;27746;52.228;20.890;2023-07-08T00:19:38;9.65;;;4.75;;
42084;SDS011;27746;52.228;20.890;2023-07-08T00:22:08;11.95;;;4.47;;
42084;SDS011;27746;52.228;20.890;2023-07-08T00:24:37;12.30;;;5.05;;
42084;SDS011;27746;52.228;20.890;2023-07-08T00:27:04;7.28;;;4.15;;
42084;SDS011;27746;52.228;20.890;2023-07-08T00:29:34;9.57;;;4.15;;
42084;SDS011;27746;52.228;20.890;2023-07-08T00:32:00;8.07;;;3.83;;
42084;SDS011;27746;52.228;20.890;2023-07-08T00:34:29;7.68;;;4.22;;
42084;SDS011;27746;52.228;20.890;2023-07-08T00:36:56;9.95;;;4.40;;
42084;SDS011;27746;52.228;20.890;2023-07-08T00:39:23;7.30;;;3.72;;
42084;SDS011;27746;52.228;20.890;2023-07-08T00:41:50;10.05;;;4.50;;
42084;SDS011;27746;52.228;20.890;2023-07-08T00:44:18;10.60;;;4.38;;
42084;SDS011;27746;52.228;20.890;2023-07-08T00:46:50;8.05;;;4.30;;
42084;SDS011;27746;52.228;20.890;2023-07-08T00:49:31;7.85;;;4.25;;
42084;SDS011;27746;52.228;20.890;2023-07-08T00:52:16;9.48;;;4.30;;
42084;SDS011;27746;52.228;20.890;2023-07-08T00:54:44;11.02;;;5.20;;
42084;SDS011;27746;52.228;20.890;2023-07-08T00:57:11;7.60;;;4.80;;
42084;SDS011;27746;52.228;20.890;2023-07-08T00:59:38;8.73;;;4.80;;
42084;SDS011;27746;52.228;20.890;2023-07-08T01:02:09;10.65;;;4.45;;
42084;SDS011;27746;52.228;20.890;2023-07-08T01:04:42;9.05;;;4.70;;
42084;SDS011;27746;52.228;20.890;2023-07-08T01:07:15;8.77;;;4.70;;
42084;SDS011;27746;52.228;20.890;2023-07-08T01:09:47;13.00;;;4.85;;
42084;SDS011;27746;52.228;20.890;2023-07-08T01:12:23;11.75;;;4.90;;
42084;SDS011;27746;52.228;20.890;2023-07-08T01:14:54;9.90;;;4.68;;
42084;SDS011;27746;52.228;20.890;2023-07-08T01:17:22;10.50;;;4.72;;
42084;SDS011;27746;52.228;20.890;2023-07-08T01:19:50;8.85;;;4.35;;
42084;SDS011;27746;52.228;20.890;2023-07-08T01:22:22;8.48;;;4.60;;
42084;SDS011;27746;52.228;20.890;2023-07-08T01:24:49;9.68;;;4.80;;
42084;SDS011;27746;52.228;20.890;2023-07-08T01:27:16;9.25;;;4.50;;
42084;SDS011;27746;52.228;20.890;2023-07-08T01:29:45;8.05;;;4.03;;
42084;SDS011;27746;52.228;20.890;2023-07-08T01:32:13;10.05;;;4.63;;
42084;SDS011;27746;52.228;20.890;2023-07-08T01:34:43;10.85;;;4.72;;
42084;SDS011;27746;52.228;20.890;2023-07-08T01:37:27;9.05;;;5.05;;
42084;SDS011;27746;52.228;20.890;2023-07-08T01:39:57;9.00;;;4.50;;
42084;SDS011;27746;52.228;20.890;2023-07-08T01:42:24;7.95;;;4.60;;
42084;SDS011;27746;52.228;20.890;2023-07-08T01:44:51;10.20;;;4.70;;
42084;SDS011;27746;52.228;20.890;2023-07-08T01:47:19;9.52;;;4.60;;
42084;SDS011;27746;52.228;20.890;2023-07-08T01:49:47;11.88;;;4.72;;
42084;SDS011;27746;52.228;20.890;2023-07-08T01:52:15;10.60;;;4.25;;
42084;SDS011;27746;52.228;20.890;2023-07-08T01:54:45;9.70;;;4.88;;
42084;SDS011;27746;52.228;20.890;2023-07-08T01:57:20;8.05;;;4.00;;
42084;SDS011;27746;52.228;20.890;2023-07-08T01:59:47;12.20;;;5.07;;
42084;SDS011;27746;52.228;20.890;2023-07-08T02:02:15;11.90;;;4.88;;
42084;SDS011;27746;52.228;20.890;2023-07-08T02:04:42;7.93;;;4.65;;
42084;SDS011;27746;52.228;20.890;2023-07-08T02:07:09;10.23;;;4.68;;
42084;SDS011;27746;52.228;20.890;2023-07-08T02:09:36;8.05;;;3.88;;
42084;SDS011;27746;52.228;20.890;2023-07-08T02:12:08;11.70;;;6.00;;
42084;SDS011;27746;52.228;20.890;2023-07-08T02:14:33;7.72;;;4.10;;
42084;SDS011;27746;52.228;20.890;2023-07-08T02:17:01;10.65;;;4.68;;
42084;SDS011;27746;52.228;20.890;2023-07-08T02:19:30;8.00;;;4.18;;
42084;SDS011;27746;52.228;20.890;2023-07-08T02:21:57;11.75;;;4.60;;
42084;SDS011;27746;52.228;20.890;2023-07-08T02:24:25;10.25;;;4.45;;
42084;SDS011;27746;52.228;20.890;2023-07-08T02:26:52;11.27;;;4.80;;
42084;SDS011;27746;52.228;20.890;2023-07-08T02:29:20;7.90;;;4.15;;
42084;SDS011;27746;52.228;20.890;2023-07-08T02:31:47;7.18;;;4.10;;
42084;SDS011;27746;52.228;20.890;2023-07-08T02:34:14;12.35;;;4.78;;
42084;SDS011;27746;52.228;20.890;2023-07-08T02:36:41;13.93;;;4.07;;
42084;SDS011;27746;52.228;20.890;2023-07-08T02:39:09;9.82;;;4.60;;
42084;SDS011;27746;52.228;20.890;2023-07-08T02:41:36;9.23;;;5.25;;
42084;SDS011;27746;52.228;20.890;2023-07-08T02:44:03;12.90;;;5.38;;
42084;SDS011;27746;52.228;20.890;2023-07-08T02:46:32;10.50;;;4.90;;
42084;SDS011;27746;52.228;20.890;2023-07-08T02:48:59;13.02;;;5.18;;
42084;SDS011;27746;52.228;20.890;2023-07-08T02:51:26;10.80;;;4.90;;
42084;SDS011;27746;52.228;20.890;2023-07-08T02:53:53;8.65;;;4.45;;
42084;SDS011;27746;52.228;20.890;2023-07-08T02:56:20;8.13;;;4.10;;
42084;SDS011;27746;52.228;20.890;2023-07-08T02:58:48;8.70;;;5.20;;
42084;SDS011;27746;52.228;20.890;2023-07-08T03:01:15;10.18;;;4.70;;
42084;SDS011;27746;52.228;20.890;2023-07-08T03:03:44;10.05;;;4.35;;
42084;SDS011;27746;52.228;20.890;2023-07-08T03:06:10;9.00;;;4.68;;
42084;SDS011;27746;52.228;20.890;2023-07-08T03:08:38;10.45;;;4.60;;
42084;SDS011;27746;52.228;20.890;2023-07-08T03:11:06;7.97;;;4.25;;
42084;SDS011;27746;52.228;20.890;2023-07-08T03:13:34;7.88;;;5.05;;
42084;SDS011;27746;52.228;20.890;2023-07-08T03:16:01;7.97;;;4.40;;
42084;SDS011;27746;52.228;20.890;2023-07-08T03:18:33;8.17;;;4.50;;
42084;SDS011;27746;52.228;20.890;2023-07-08T03:21:05;10.70;;;4.80;;
42084;SDS011;27746;52.228;20.890;2023-07-08T03:23:32;8.90;;;4.72;;
42084;SDS011;27746;52.228;20.890;2023-07-08T03:25:59;10.50;;;4.60;;
42084;SDS011;27746;52.228;20.890;2023-07-08T03:28:26;9.70;;;4.65;;
42084;SDS011;27746;52.228;20.890;2023-07-08T03:30:52;9.38;;;5.22;;
42084;SDS011;27746;52.228;20.890;2023-07-08T03:33:19;10.27;;;4.55;;
42084;SDS011;27746;52.228;20.890;2023-07-08T03:35:47;9.68;;;4.32;;
42084;SDS011;27746;52.228;20.890;2023-07-08T03:38:15;8.77;;;4.65;;
42084;SDS011;27746;52.228;20.890;2023-07-08T03:40:43;7.07;;;4.38;;
42084;SDS011;27746;52.228;20.890;2023-07-08T03:43:10;10.63;;;5.20;;
42084;SDS011;27746;52.228;20.890;2023-07-08T03:45:37;11.45;;;5.35;;
42084;SDS011;27746;52.228;20.890;2023-07-08T03:48:04;9.15;;;5.43;;
42084;SDS011;27746;52.228;20.890;2023-07-08T03:50:31;8.23;;;5.05;;
42084;SDS011;27746;52.228;20.890;2023-07-08T03:52:58;17.77;;;5.75;;
42084;SDS011;27746;52.228;20.890;2023-07-08T03:55:27;10.90;;;5.28;;
42084;SDS011;27746;52.228;20.890;2023-07-08T03:57:54;7.20;;;4.43;;
42084;SDS011;27746;52.228;20.890;2023-07-08T04:00:21;7.68;;;4.43;;
42084;SDS011;27746;52.228;20.890;2023-07-08T04:02:48;13.55;;;5.10;;
42084;SDS011;27746;52.228;20.890;2023-07-08T04:05:15;11.25;;;5.20;;
42084;SDS011;27746;52.228;20.890;2023-07-08T04:07:44;8.18;;;5.15;;
42084;SDS011;27746;52.228;20.890;2023-07-08T04:10:11;10.52;;;5.65;;
42084;SDS011;27746;52.228;20.890;2023-07-08T04:12:40;10.18;;;5.65;;
42084;SDS011;27746;52.228;20.890;2023-07-08T04:15:07;9.35;;;5.28;;
42084;SDS011;27746;52.228;20.890;2023-07-08T04:17:35;10.57;;;5.78;;
42084;SDS011;27746;52.228;20.890;2023-07-08T04:20:07;11.40;;;6.18;;
42084;SDS011;27746;52.228;20.890;2023-07-08T04:22:36;9.13;;;5.70;;
42084;SDS011;27746;52.228;20.890;2023-07-08T04:25:03;11.75;;;5.70;;
42084;SDS011;27746;52.228;20.890;2023-07-08T04:27:31;14.07;;;6.25;;
42084;SDS011;27746;52.228;20.890;2023-07-08T04:29:59;12.90;;;6.68;;
42084;SDS011;27746;52.228;20.890;2023-07-08T04:32:28;11.65;;;5.90;;
42084;SDS011;27746;52.228;20.890;2023-07-08T04:34:55;12.10;;;5.70;;
42084;SDS011;27746;52.228;20.890;2023-07-08T04:37:22;10.27;;;5.75;;
42084;SDS011;27746;52.228;20.890;2023-07-08T04:39:49;12.75;;;6.57;;
42084;SDS011;27746;52.228;20.890;2023-07-08T04:42:16;13.40;;;5.60;;
42084;SDS011;27746;52.228;20.890;2023-07-08T04:44:43;14.35;;;6.65;;
42084;SDS011;27746;52.228;20.890;2023-07-08T04:47:12;14.50;;;6.43;;
42084;SDS011;27746;52.228;20.890;2023-07-08T04:49:39;15.23;;;7.15;;
42084;SDS011;27746;52.228;20.890;2023-07-08T04:52:08;17.95;;;6.10;;
42084;SDS011;27746;52.228;20.890;2023-07-08T04:54:35;14.25;;;6.20;;
42084;SDS011;27746;52.228;20.890;2023-07-08T04:57:03;11.05;;;6.07;;
42084;SDS011;27746;52.228;20.890;2023-07-08T04:59:30;12.23;;;5.97;;
42084;SDS011;27746;52.228;20.890;2023-07-08T05:01:59;13.02;;;5.20;;
42084;SDS011;27746;52.228;20.890;2023-07-08T05:04:28;9.25;;;5.70;;
42084;SDS011;27746;52.228;20.890;2023-07-08T05:06:55;9.32;;;5.43;;
42084;SDS011;27746;52.228;20.890;2023-07-08T05:09:22;10.77;;;6.15;;
42084;SDS011;27746;52.228;20.890;2023-07-08T05:11:51;10.82;;;5.35;;
42084;SDS011;27746;52.228;20.890;2023-07-08T05:14:18;8.85;;;5.18;;
42084;SDS011;27746;52.228;20.890;2023-07-08T05:16:45;11.18;;;4.75;;
42084;SDS011;27746;52.228;20.890;2023-07-08T05:19:13;7.65;;;4.20;;
42084;SDS011;27746;52.228;20.890;2023-07-08T05:21:41;8.57;;;4.45;;
42084;SDS011;27746;52.228;20.890;2023-07-08T05:24:10;8.73;;;4.45;;
42084;SDS011;27746;52.228;20.890;2023-07-08T05:26:37;9.40;;;5.20;;
42084;SDS011;27746;52.228;20.890;2023-07-08T05:29:04;19.40;;;5.28;;
42084;SDS011;27746;52.228;20.890;2023-07-08T05:31:31;16.38;;;4.95;;
42084;SDS011;27746;52.228;20.890;2023-07-08T05:34:00;17.92;;;5.22;;
42084;SDS011;27746;52.228;20.890;2023-07-08T05:36:28;14.65;;;4.90;;
42084;SDS011;27746;52.228;20.890;2023-07-08T05:38:59;15.65;;;4.63;;
42084;SDS011;27746;52.228;20.890;2023-07-08T05:41:26;8.40;;;4.07;;
42084;SDS011;27746;52.228;20.890;2023-07-08T05:43:53;16.48;;;4.15;;
42084;SDS011;27746;52.228;20.890;2023-07-08T05:46:20;12.52;;;3.72;;
42084;SDS011;27746;52.228;20.890;2023-07-08T05:48:47;12.38;;;3.42;;
42084;SDS011;27746;52.228;20.890;2023-07-08T05:51:16;10.77;;;4.57;;
42084;SDS011;27746;52.228;20.890;2023-07-08T05:53:42;10.00;;;4.22;;
42084;SDS011;27746;52.228;20.890;2023-07-08T05:56:11;7.82;;;3.60;;
42084;SDS011;27746;52.228;20.890;2023-07-08T05:58:38;7.70;;;3.42;;
42084;SDS011;27746;52.228;20.890;2023-07-08T06:01:05;9.75;;;3.80;;
42084;SDS011;27746;52.228;20.890;2023-07-08T06:03:33;7.28;;;3.72;;
42084;SDS011;27746;52.228;20.890;2023-07-08T06:06:00;8.68;;;3.25;;
42084;SDS011;27746;52.228;20.890;2023-07-08T06:08:27;7.43;;;2.90;;
42084;SDS011;27746;52.228;20.890;2023-07-08T06:10:54;5.85;;;3.55;;
42084;SDS011;27746;52.228;20.890;2023-07-08T06:13:23;8.05;;;3.58;;
42084;SDS011;27746;52.228;20.890;2023-07-08T06:15:49;6.22;;;2.85;;
42084;SDS011;27746;52.228;20.890;2023-07-08T06:18:16;7.85;;;3.00;;
42084;SDS011;27746;52.228;20.890;2023-07-08T06:20:50;7.20;;;3.47;;
42084;SDS011;27746;52.228;20.890;2023-07-08T06:23:18;9.50;;;3.55;;
42084;SDS011;27746;52.228;20.890;2023-07-08T06:25:44;4.63;;;3.15;;
42084;SDS011;27746;52.228;20.890;2023-07-08T06:28:11;7.03;;;2.97;;
42084;SDS011;27746;52.228;20.890;2023-07-08T06:30:40;7.45;;;2.92;;
42084;SDS011;27746;52.228;20.890;2023-07-08T06:33:06;6.28;;;3.17;;
42084;SDS011;27746;52.228;20.890;2023-07-08T06:35:33;5.70;;;3.20;;
42084;SDS011;27746;52.228;20.890;2023-07-08T06:38:00;8.00;;;3.42;;
42084;SDS011;27746;52.228;20.890;2023-07-08T06:40:27;6.43;;;3.22;;
42084;SDS011;27746;52.228;20.890;2023-07-08T06:42:55;5.57;;;3.20;;
42084;SDS011;27746;52.228;20.890;2023-07-08T06:45:22;6.47;;;3.92;;
42084;SDS011;27746;52.228;20.890;2023-07-08T06:48:01;5.70;;;3.53;;
42084;SDS011;27746;52.228;20.890;2023-07-08T06:50:28;4.35;;;2.88;;
42084;SDS011;27746;52.228;20.890;2023-07-08T06:52:55;5.80;;;2.60;;
42084;SDS011;27746;52.228;20.890;2023-07-08T06:55:22;4.65;;;2.15;;
42084;SDS011;27746;52.228;20.890;2023-07-08T06:57:49;4.60;;;2.22;;
42084;SDS011;27746;52.228;20.890;2023-07-08T07:00:17;4.88;;;2.70;;
42084;SDS011;27746;52.228;20.890;2023-07-08T07:02:43;5.10;;;2.20;;
42084;SDS011;27746;52.228;20.890;2023-07-08T07:05:12;6.18;;;2.40;;
42084;SDS011;27746;52.228;20.890;2023-07-08T07:07:39;12.57;;;4.75;;
42084;SDS011;27746;52.228;20.890;2023-07-08T07:10:06;6.32;;;2.67;;
42084;SDS011;27746;52.228;20.890;2023-07-08T07:12:33;5.22;;;2.47;;
42084;SDS011;27746;52.228;20.890;2023-07-08T07:15:00;5.28;;;2.20;;
42084;SDS011;27746;52.228;20.890;2023-07-08T07:17:28;5.88;;;2.47;;
42084;SDS011;27746;52.228;20.890;2023-07-08T07:19:55;4.60;;;2.90;;
42084;SDS011;27746;52.228;20.890;2023-07-08T07:22:23;10.35;;;4.00;;
42084;SDS011;27746;52.228;20.890;2023-07-08T07:24:50;6.25;;;3.00;;
42084;SDS011;27746;52.228;20.890;2023-07-08T07:27:17;7.03;;;2.85;;
42084;SDS011;27746;52.228;20.890;2023-07-08T07:29:45;8.05;;;2.53;;
42084;SDS011;27746;52.228;20.890;2023-07-08T07:32:13;3.53;;;2.17;;
42084;SDS011;27746;52.228;20.890;2023-07-08T07:34:41;4.32;;;2.22;;
42084;SDS011;27746;52.228;20.890;2023-07-08T07:37:10;5.90;;;2.50;;
42084;SDS011;27746;52.228;20.890;2023-07-08T07:39:39;5.57;;;2.95;;
42084;SDS011;27746;52.228;20.890;2023-07-08T07:42:07;3.78;;;2.13;;
42084;SDS011;27746;52.228;20.890;2023-07-08T07:44:35;4.63;;;2.47;;
42084;SDS011;27746;52.228;20.890;2023-07-08T07:47:05;6.63;;;2.67;;
42084;SDS011;27746;52.228;20.890;2023-07-08T07:49:35;5.53;;;2.65;;
42084;SDS011;27746;52.228;20.890;2023-07-08T07:52:02;6.15;;;2.85;;
42084;SDS011;27746;52.228;20.890;2023-07-08T07:54:29;4.53;;;2.33;;
42084;SDS011;27746;52.228;20.890;2023-07-08T07:56:58;3.85;;;1.83;;
42084;SDS011;27746;52.228;20.890;2023-07-08T07:59:24;3.72;;;1.95;;
42084;SDS011;27746;52.228;20.890;2023-07-08T08:01:51;8.05;;;2.08;;
42084;SDS011;27746;52.228;20.890;2023-07-08T08:04:18;4.15;;;1.58;;
42084;SDS011;27746;52.228;20.890;2023-07-08T08:06:45;6.68;;;2.13;;
42084;SDS011;27746;52.228;20.890;2023-07-08T08:09:12;2.92;;;1.67;;
42084;SDS011;27746;52.228;20.890;2023-07-08T08:11:39;4.30;;;2.05;;
42084;SDS011;27746;52.228;20.890;2023-07-08T08:14:07;3.13;;;2.03;;
42084;SDS011;27746;52.228;20.890;2023-07-08T08:16:34;4.70;;;2.70;;
42084;SDS011;27746;52.228;20.890;2023-07-08T08:19:01;5.55;;;2.20;;
42084;SDS011;27746;52.228;20.890;2023-07-08T08:21:28;4.55;;;2.38;;
42084;SDS011;27746;52.228;20.890;2023-07-08T08:23:55;5.80;;;3.10;;
42084;SDS011;27746;52.228;20.890;2023-07-08T08:26:23;4.13;;;2.10;;
42084;SDS011;27746;52.228;20.890;2023-07-08T08:28:51;4.18;;;2.35;;
42084;SDS011;27746;52.228;20.890;2023-07-08T08:31:19;6.30;;;3.30;;
42084;SDS011;27746;52.228;20.890;2023-07-08T08:33:46;4.75;;;2.90;;
42084;SDS011;27746;52.228;20.890;2023-07-08T08:36:13;5.10;;;2.00;;
42084;SDS011;27746;52.228;20.890;2023-07-08T08:38:42;5.10;;;1.85;;
42084;SDS011;27746;52.228;20.890;2023-07-08T08:41:10;5.25;;;1.80;;
42084;SDS011;27746;52.228;20.890;2023-07-08T08:43:39;3.88;;;1.85;;
42084;SDS011;27746;52.228;20.890;2023-07-08T08:46:09;3.45;;;1.75;;
42084;SDS011;27746;52.228;20.890;2023-07-08T08:48:45;7.55;;;2.30;;
42084;SDS011;27746;52.228;20.890;2023-07-08T08:51:18;4.07;;;1.95;;
42084;SDS011;27746;52.228;20.890;2023-07-08T08:53:45;4.15;;;2.25;;
42084;SDS011;27746;52.228;20.890;2023-07-08T08:56:14;5.47;;;2.10;;
42084;SDS011;27746;52.228;20.890;2023-07-08T08:58:47;3.45;;;2.13;;
42084;SDS011;27746;52.228;20.890;2023-07-08T09:01:22;4.18;;;2.13;;
42084;SDS011;27746;52.228;20.890;2023-07-08T09:03:52;5.18;;;2.20;;
42084;SDS011;27746;52.228;20.890;2023-07-08T09:06:24;4.80;;;2.05;;
42084;SDS011;27746;52.228;20.890;2023-07-08T09:08:52;3.88;;;2.38;;
42084;SDS011;27746;52.228;20.890;2023-07-08T09:11:39;7.10;;;2.03;;
42084;SDS011;27746;52.228;20.890;2023-07-08T09:14:14;5.70;;;2.22;;
42084;SDS011;27746;52.228;20.890;2023-07-08T09:16:49;5.40;;;1.95;;
42084;SDS011;27746;52.228;20.890;2023-07-08T09:19:24;7.30;;;2.38;;
42084;SDS011;27746;52.228;20.890;2023-07-08T09:21:57;3.45;;;1.80;;
42084;SDS011;27746;52.228;20.890;2023-07-08T09:24:31;3.92;;;2.00;;
42084;SDS011;27746;52.228;20.890;2023-07-08T09:27:01;3.08;;;1.70;;
42084;SDS011;27746;52.228;20.890;2023-07-08T09:29:28;6.30;;;2.42;;
42084;SDS011;27746;52.228;20.890;2023-07-08T09:31:56;5.88;;;2.05;;
42084;SDS011;27746;52.228;20.890;2023-07-08T09:34:36;3.50;;;1.73;;
42084;SDS011;27746;52.228;20.890;2023-07-08T09:37:18;3.10;;;1.52;;
42084;SDS011;27746;52.228;20.890;2023-07-08T09:39:50;3.90;;;2.08;;
42084;SDS011;27746;52.228;20.890;2023-07-08T09:42:18;3.40;;;1.90;;
42084;SDS011;27746;52.228;20.890;2023-07-08T09:44:47;3.95;;;1.80;;
42084;SDS011;27746;52.228;20.890;2023-07-08T09:47:20;3.20;;;1.83;;
42084;SDS011;27746;52.228;20.890;2023-07-08T09:49:50;5.50;;;1.98;;
42084;SDS011;27746;52.228;20.890;2023-07-08T09:52:19;4.10;;;1.92;;
42084;SDS011;27746;52.228;20.890;2023-07-08T09:54:46;5.40;;;2.72;;
42084;SDS011;27746;52.228;20.890;2023-07-08T09:57:17;4.70;;;2.13;;
42084;SDS011;27746;52.228;20.890;2023-07-08T09:59:53;6.25;;;1.70;;
42084;SDS011;27746;52.228;20.890;2023-07-08T10:02:25;6.03;;;2.17;;
42084;SDS011;27746;52.228;20.890;2023-07-08T10:04:57;3.80;;;1.77;;
42084;SDS011;27746;52.228;20.890;2023-07-08T10:07:27;3.67;;;2.00;;
42084;SDS011;27746;52.228;20.890;2023-07-08T10:09:57;5.03;;;1.70;;
42084;SDS011;27746;52.228;20.890;2023-07-08T10:12:26;4.22;;;1.92;;
42084;SDS011;27746;52.228;20.890;2023-07-08T10:14:56;4.05;;;1.92;;
42084;SDS011;27746;52.228;20.890;2023-07-08T10:17:25;4.07;;;1.88;;
42084;SDS011;27746;52.228;20.890;2023-07-08T10:19:52;12.23;;;2.40;;
42084;SDS011;27746;52.228;20.890;2023-07-08T10:22:24;4.05;;;2.42;;
42084;SDS011;27746;52.228;20.890;2023-07-08T10:25:08;5.03;;;1.95;;
42084;SDS011;27746;52.228;20.890;2023-07-08T10:27:45;4.78;;;1.90;;
42084;SDS011;27746;52.228;20.890;2023-07-08T10:30:19;6.15;;;1.80;;
42084;SDS011;27746;52.228;20.890;2023-07-08T10:33:02;5.77;;;1.97;;
42084;SDS011;27746;52.228;20.890;2023-07-08T10:36:05;3.67;;;2.00;;
42084;SDS011;27746;52.228;20.890;2023-07-08T10:38:46;8.93;;;2.22;;
42084;SDS011;27746;52.228;20.890;2023-07-08T10:41:21;3.25;;;1.88;;
42084;SDS011;27746;52.228;20.890;2023-07-08T10:43:59;2.88;;;1.90;;
42084;SDS011;27746;52.228;20.890;2023-07-08T10:46:35;3.78;;;2.00;;
42084;SDS011;27746;52.228;20.890;2023-07-08T10:49:12;2.92;;;1.77;;
42084;SDS011;27746;52.228;20.890;2023-07-08T10:52:03;4.15;;;1.90;;
42084;SDS011;27746;52.228;20.890;2023-07-08T10:54:56;3.53;;;2.03;;
42084;SDS011;27746;52.228;20.890;2023-07-08T10:57:37;3.63;;;1.77;;
42084;SDS011;27746;52.228;20.890;2023-07-08T11:00:24;5.90;;;1.92;;
42084;SDS011;27746;52.228;20.890;2023-07-08T11:03:03;3.25;;;2.15;;
42084;SDS011;27746;52.228;20.890;2023-07-08T11:05:50;5.78;;;1.60;;
42084;SDS011;27746;52.228;20.890;2023-07-08T11:08:23;4.40;;;2.20;;
42084;SDS011;27746;52.228;20.890;2023-07-08T11:10:56;5.28;;;2.45;;
42084;SDS011;27746;52.228;20.890;2023-07-08T11:13:25;5.03;;;2.35;;
42084;SDS011;27746;52.228;20.890;2023-07-08T11:15:56;4.85;;;2.13;;
42084;SDS011;27746;52.228;20.890;2023-07-08T11:18:28;3.88;;;2.00;;
42084;SDS011;27746;52.228;20.890;2023-07-08T11:21:02;3.17;;;2.05;;
42084;SDS011;27746;52.228;20.890;2023-07-08T11:23:38;3.53;;;2.13;;
42084;SDS011;27746;52.228;20.890;2023-07-08T11:26:14;6.40;;;2.53;;
42084;SDS011;27746;52.228;20.890;2023-07-08T11:28:45;5.25;;;3.20;;
42084;SDS011;27746;52.228;20.890;2023-07-08T11:31:12;5.53;;;2.33;;
42084;SDS011;27746;52.228;20.890;2023-07-08T11:33:40;4.30;;;2.42;;
42084;SDS011;27746;52.228;20.890;2023-07-08T11:36:08;5.35;;;2.60;;
42084;SDS011;27746;52.228;20.890;2023-07-08T11:38:36;5.57;;;2.42;;
42084;SDS011;27746;52.228;20.890;2023-07-08T11:41:15;5.35;;;2.25;;
42084;SDS011;27746;52.228;20.890;2023-07-08T11:43:47;4.30;;;1.92;;
42084;SDS011;27746;52.228;20.890;2023-07-08T11:46:18;4.20;;;1.95;;
42084;SDS011;27746;52.228;20.890;2023-07-08T11:48:51;4.97;;;2.40;;
42084;SDS011;27746;52.228;20.890;2023-07-08T11:51:21;4.88;;;2.63;;
42084;SDS011;27746;52.228;20.890;2023-07-08T11:53:51;4.78;;;2.10;;
42084;SDS011;27746;52.228;20.890;2023-07-08T11:56:27;5.65;;;2.92;;
42084;SDS011;27746;52.228;20.890;2023-07-08T11:58:58;4.90;;;2.20;;
42084;SDS011;27746;52.228;20.890;2023-07-08T12:01:32;3.75;;;2.20;;
42084;SDS011;27746;52.228;20.890;2023-07-08T12:04:15;3.95;;;2.40;;
42084;SDS011;27746;52.228;20.890;2023-07-08T12:06:53;3.78;;;2.00;;
42084;SDS011;27746;52.228;20.890;2023-07-08T12:09:36;4.32;;;2.17;;
42084;SDS011;27746;52.228;20.890;2023-07-08T12:12:07;4.00;;;2.47;;
42084;SDS011;27746;52.228;20.890;2023-07-08T12:14:46;3.92;;;2.67;;
42084;SDS011;27746;52.228;20.890;2023-07-08T12:17:14;4.43;;;2.60;;
42084;SDS011;27746;52.228;20.890;2023-07-08T12:19:42;7.75;;;4.78;;
42084;SDS011;27746;52.228;20.890;2023-07-08T12:22:10;3.83;;;2.55;;
42084;SDS011;27746;52.228;20.890;2023-07-08T12:24:38;4.53;;;2.40;;
42084;SDS011;27746;52.228;20.890;2023-07-08T12:27:07;6.97;;;2.13;;
42084;SDS011;27746;52.228;20.890;2023-07-08T12:29:36;4.45;;;2.35;;
42084;SDS011;27746;52.228;20.890;2023-07-08T12:32:03;4.00;;;2.40;;
42084;SDS011;27746;52.228;20.890;2023-07-08T12:34:31;3.78;;;2.30;;
42084;SDS011;27746;52.228;20.890;2023-07-08T12:36:59;4.55;;;2.22;;
42084;SDS011;27746;52.228;20.890;2023-07-08T12:39:26;6.43;;;2.53;;
42084;SDS011;27746;52.228;20.890;2023-07-08T12:41:58;3.78;;;2.28;;
42084;SDS011;27746;52.228;20.890;2023-07-08T12:44:27;5.20;;;2.40;;
42084;SDS011;27746;52.228;20.890;2023-07-08T12:46:54;5.40;;;2.35;;
42084;SDS011;27746;52.228;20.890;2023-07-08T12:49:21;4.63;;;2.58;;
42084;SDS011;27746;52.228;20.890;2023-07-08T12:51:52;5.28;;;2.95;;
42084;SDS011;27746;52.228;20.890;2023-07-08T12:54:19;7.60;;;3.47;;
42084;SDS011;27746;52.228;20.890;2023-07-08T12:56:47;8.50;;;3.03;;
42084;SDS011;27746;52.228;20.890;2023-07-08T12:59:14;4.80;;;2.25;;
42084;SDS011;27746;52.228;20.890;2023-07-08T13:01:47;4.65;;;2.45;;
42084;SDS011;27746;52.228;20.890;2023-07-08T13:04:17;7.57;;;3.08;;
42084;SDS011;27746;52.228;20.890;2023-07-08T13:06:44;3.75;;;2.30;;
42084;SDS011;27746;52.228;20.890;2023-07-08T13:09:21;7.93;;;2.60;;
42084;SDS011;27746;52.228;20.890;2023-07-08T13:12:00;7.43;;;2.10;;
42084;SDS011;27746;52.228;20.890;2023-07-08T13:14:30;22.65;;;3.72;;
42084;SDS011;27746;52.228;20.890;2023-07-08T13:16:59;6.90;;;4.30;;
42084;SDS011;27746;52.228;20.890;2023-07-08T13:19:26;4.32;;;2.50;;
42084;SDS011;27746;52.228;20.890;2023-07-08T13:21:54;6.63;;;2.25;;
42084;SDS011;27746;52.228;20.890;2023-07-08T13:24:21;5.75;;;3.08;;
42084;SDS011;27746;52.228;20.890;2023-07-08T13:26:48;5.65;;;3.10;;
42084;SDS011;27746;52.228;20.890;2023-07-08T13:29:16;6.63;;;2.58;;
42084;SDS011;27746;52.228;20.890;2023-07-08T13:31:47;4.43;;;2.53;;
42084;SDS011;27746;52.228;20.890;2023-07-08T13:34:17;6.60;;;2.70;;
42084;SDS011;27746;52.228;20.890;2023-07-08T13:36:46;5.25;;;2.22;;
42084;SDS011;27746;52.228;20.890;2023-07-08T13:39:19;3.20;;;2.10;;
42084;SDS011;27746;52.228;20.890;2023-07-08T13:41:50;6.85;;;2.10;;
42084;SDS011;27746;52.228;20.890;2023-07-08T13:44:17;5.22;;;2.15;;
42084;SDS011;27746;52.228;20.890;2023-07-08T13:46:45;4.43;;;2.83;;
42084;SDS011;27746;52.228;20.890;2023-07-08T13:49:23;9.63;;;2.72;;
42084;SDS011;27746;52.228;20.890;2023-07-08T13:52:03;5.97;;;2.60;;
42084;SDS011;27746;52.228;20.890;2023-07-08T13:54:33;31.08;;;4.80;;
42084;SDS011;27746;52.228;20.890;2023-07-08T13:57:08;6.00;;;2.80;;
42084;SDS011;27746;52.228;20.890;2023-07-08T13:59:36;5.72;;;3.03;;
42084;SDS011;27746;52.228;20.890;2023-07-08T14:02:06;13.68;;;3.40;;
42084;SDS011;27746;52.228;20.890;2023-07-08T14:04:42;6.90;;;2.28;;
42084;SDS011;27746;52.228;20.890;2023-07-08T14:07:12;10.15;;;2.58;;
42084;SDS011;27746;52.228;20.890;2023-07-08T14:09:41;7.28;;;2.67;;
42084;SDS011;27746;52.228;20.890;2023-07-08T14:12:08;16.30;;;3.15;;
42084;SDS011;27746;52.228;20.890;2023-07-08T14:14:35;13.93;;;2.88;;
42084;SDS011;27746;52.228;20.890;2023-07-08T14:17:02;5.70;;;2.42;;
42084;SDS011;27746;52.228;20.890;2023-07-08T14:19:30;3.70;;;2.25;;
42084;SDS011;27746;52.228;20.890;2023-07-08T14:22:02;8.02;;;2.63;;
42084;SDS011;27746;52.228;20.890;2023-07-08T14:24:48;7.22;;;3.08;;
42084;SDS011;27746;52.228;20.890;2023-07-08T14:27:15;5.20;;;2.75;;
42084;SDS011;27746;52.228;20.890;2023-07-08T14:29:43;3.15;;;1.92;;
42084;SDS011;27746;52.228;20.890;2023-07-08T14:32:12;4.25;;;2.50;;
42084;SDS011;27746;52.228;20.890;2023-07-08T14:34:41;6.00;;;2.45;;
42084;SDS011;27746;52.228;20.890;2023-07-08T14:37:15;5.28;;;2.22;;
42084;SDS011;27746;52.228;20.890;2023-07-08T14:39:43;6.38;;;2.50;;
42084;SDS011;27746;52.228;20.890;2023-07-08T14:42:10;4.28;;;2.35;;
42084;SDS011;27746;52.228;20.890;2023-07-08T14:44:39;4.60;;;2.00;;
42084;SDS011;27746;52.228;20.890;2023-07-08T14:47:08;5.30;;;2.25;;